sensor_id;sensor_type;location;lat;lon;timestamp;P1;durP1;ratioP1;P2;durP2;ratioP2
57893;SDS011;43710;47.460;19.034;2024-02-16T05:07:22;37.40;;;26.50;;
57893;SDS011;43710;47.460;19.034;2024-02-16T05:10:24;40.12;;;27.08;;
57893;SDS011;43710;47.460;19.034;2024-02-16T05:13:27;32.30;;;24.63;;
57893;SDS011;43710;47.460;19.034;2024-02-16T05:16:29;43.53;;;27.25;;
57893;SDS011;43710;47.460;19.034;2024-02-16T05:19:33;37.00;;;25.95;;
57893;SDS011;43710;47.460;19.034;2024-02-16T05:22:37;36.85;;;24.10;;
57893;SDS011;43710;47.460;19.034;2024-02-16T05:25:39;34.30;;;22.58;;
57893;SDS011;43710;47.460;19.034;2024-02-16T05:28:43;37.13;;;24.83;;
57893;SDS011;43710;47.460;19.034;2024-02-16T05:31:45;35.15;;;23.48;;
57893;SDS011;43710;47.460;19.034;2024-02-16T05:34:48;34.03;;;24.12;;
57893;SDS011;43710;47.460;19.034;2024-02-16T05:37:52;31.45;;;24.00;;
57893;SDS011;43710;47.460;19.034;2024-02-16T05:40:55;33.13;;;23.27;;
57893;SDS011;43710;47.460;19.034;2024-02-16T05:43:58;32.58;;;24.25;;
57893;SDS011;43710;47.460;19.034;2024-02-16T05:47:01;34.75;;;25.37;;
57893;SDS011;43710;47.460;19.034;2024-02-16T05:50:05;31.45;;;24.27;;
57893;SDS011;43710;47.460;19.034;2024-02-16T05:53:09;33.92;;;23.87;;
57893;SDS011;43710;47.460;19.034;2024-02-16T05:56:12;32.53;;;24.63;;
57893;SDS011;43710;47.460;19.034;2024-02-16T05:59:14;33.00;;;23.95;;
57893;SDS011;43710;47.460;19.034;2024-02-16T06:02:16;35.17;;;23.48;;
57893;SDS011;43710;47.460;19.034;2024-02-16T06:05:19;32.30;;;24.20;;
57893;SDS011;43710;47.460;19.034;2024-02-16T06:08:22;33.03;;;23.92;;
57893;SDS011;43710;47.460;19.034;2024-02-16T06:11:27;33.25;;;23.98;;
57893;SDS011;43710;47.460;19.034;2024-02-16T06:14:30;35.85;;;24.77;;
57893;SDS011;43710;47.460;19.034;2024-02-16T06:17:33;38.30;;;24.98;;
57893;SDS011;43710;47.460;19.034;2024-02-16T06:20:35;33.22;;;24.23;;
57893;SDS011;43710;47.460;19.034;2024-02-16T06:23:38;34.78;;;25.83;;
57893;SDS011;43710;47.460;19.034;2024-02-16T06:26:40;31.75;;;24.87;;
57893;SDS011;43710;47.460;19.034;2024-02-16T06:29:42;35.55;;;26.25;;
57893;SDS011;43710;47.460;19.034;2024-02-16T06:32:45;34.30;;;27.05;;
57893;SDS011;43710;47.460;19.034;2024-02-16T06:35:47;37.28;;;27.85;;
57893;SDS011;43710;47.460;19.034;2024-02-16T06:38:52;36.28;;;27.08;;
57893;SDS011;43710;47.460;19.034;2024-02-16T06:41:54;37.35;;;28.12;;
57893;SDS011;43710;47.460;19.034;2024-02-16T06:44:57;53.95;;;29.42;;
57893;SDS011;43710;47.460;19.034;2024-02-16T06:47:59;49.13;;;29.33;;
57893;SDS011;43710;47.460;19.034;2024-02-16T06:51:02;40.95;;;30.65;;
57893;SDS011;43710;47.460;19.034;2024-02-16T06:54:04;33.67;;;26.60;;
57893;SDS011;43710;47.460;19.034;2024-02-16T06:57:09;41.42;;;28.52;;
57893;SDS011;43710;47.460;19.034;2024-02-16T07:00:14;37.80;;;27.08;;
57893;SDS011;43710;47.460;19.034;2024-02-16T07:03:17;40.55;;;27.25;;
57893;SDS011;43710;47.460;19.034;2024-02-16T07:06:20;37.83;;;27.60;;
57893;SDS011;43710;47.460;19.034;2024-02-16T07:09:23;38.95;;;26.80;;
57893;SDS011;43710;47.460;19.034;2024-02-16T07:12:25;36.55;;;25.30;;
57893;SDS011;43710;47.460;19.034;2024-02-16T07:15:28;39.13;;;25.90;;
57893;SDS011;43710;47.460;19.034;2024-02-16T07:18:31;37.13;;;25.92;;
57893;SDS011;43710;47.460;19.034;2024-02-16T07:21:34;35.75;;;25.88;;
57893;SDS011;43710;47.460;19.034;2024-02-16T07:24:37;35.78;;;26.65;;
57893;SDS011;43710;47.460;19.034;2024-02-16T07:27:40;35.90;;;25.50;;
57893;SDS011;43710;47.460;19.034;2024-02-16T07:30:43;41.37;;;27.75;;
57893;SDS011;43710;47.460;19.034;2024-02-16T07:33:46;34.03;;;25.98;;
57893;SDS011;43710;47.460;19.034;2024-02-16T07:36:49;39.25;;;26.20;;
57893;SDS011;43710;47.460;19.034;2024-02-16T07:39:51;39.10;;;26.42;;
57893;SDS011;43710;47.460;19.034;2024-02-16T07:42:54;39.13;;;26.67;;
57893;SDS011;43710;47.460;19.034;2024-02-16T07:45:56;36.60;;;26.87;;
57893;SDS011;43710;47.460;19.034;2024-02-16T07:48:59;39.45;;;27.35;;
57893;SDS011;43710;47.460;19.034;2024-02-16T07:52:02;35.83;;;26.40;;
57893;SDS011;43710;47.460;19.034;2024-02-16T07:55:05;39.33;;;28.85;;
57893;SDS011;43710;47.460;19.034;2024-02-16T07:58:08;39.75;;;27.80;;
57893;SDS011;43710;47.460;19.034;2024-02-16T08:01:11;37.10;;;27.08;;
57893;SDS011;43710;47.460;19.034;2024-02-16T08:04:18;40.08;;;29.37;;
57893;SDS011;43710;47.460;19.034;2024-02-16T08:07:20;33.00;;;26.85;;
57893;SDS011;43710;47.460;19.034;2024-02-16T08:10:22;37.97;;;26.85;;
57893;SDS011;43710;47.460;19.034;2024-02-16T08:13:25;30.95;;;24.48;;
57893;SDS011;43710;47.460;19.034;2024-02-16T08:16:27;35.60;;;23.38;;
57893;SDS011;43710;47.460;19.034;2024-02-16T08:19:33;33.40;;;24.40;;
57893;SDS011;43710;47.460;19.034;2024-02-16T08:22:37;33.92;;;24.77;;
57893;SDS011;43710;47.460;19.034;2024-02-16T08:25:40;27.52;;;21.42;;
57893;SDS011;43710;47.460;19.034;2024-02-16T08:28:43;29.37;;;21.30;;
57893;SDS011;43710;47.460;19.034;2024-02-16T08:31:50;30.92;;;20.62;;
57893;SDS011;43710;47.460;19.034;2024-02-16T08:34:53;28.10;;;19.23;;
57893;SDS011;43710;47.460;19.034;2024-02-16T08:37:58;26.87;;;19.15;;
57893;SDS011;43710;47.460;19.034;2024-02-16T08:41:00;28.05;;;18.70;;
57893;SDS011;43710;47.460;19.034;2024-02-16T08:44:03;25.23;;;19.08;;
57893;SDS011;43710;47.460;19.034;2024-02-16T08:47:07;28.05;;;19.80;;
57893;SDS011;43710;47.460;19.034;2024-02-16T08:50:10;26.33;;;18.60;;
57893;SDS011;43710;47.460;19.034;2024-02-16T08:53:15;26.50;;;18.87;;
57893;SDS011;43710;47.460;19.034;2024-02-16T08:56:18;23.55;;;18.50;;
57893;SDS011;43710;47.460;19.034;2024-02-16T08:59:21;27.05;;;17.83;;
57893;SDS011;43710;47.460;19.034;2024-02-16T09:02:23;21.87;;;16.60;;
57893;SDS011;43710;47.460;19.034;2024-02-16T09:05:26;24.85;;;17.20;;
57893;SDS011;43710;47.460;19.034;2024-02-16T09:08:28;21.55;;;17.35;;
57893;SDS011;43710;47.460;19.034;2024-02-16T09:11:35;21.98;;;17.00;;
57893;SDS011;43710;47.460;19.034;2024-02-16T09:14:37;21.08;;;15.57;;
57893;SDS011;43710;47.460;19.034;2024-02-16T09:17:39;18.85;;;15.52;;
57893;SDS011;43710;47.460;19.034;2024-02-16T09:20:42;20.88;;;14.65;;
57893;SDS011;43710;47.460;19.034;2024-02-16T09:23:45;21.50;;;15.10;;
57893;SDS011;43710;47.460;19.034;2024-02-16T09:26:48;24.25;;;15.52;;
57893;SDS011;43710;47.460;19.034;2024-02-16T09:29:50;20.67;;;14.48;;
57893;SDS011;43710;47.460;19.034;2024-02-16T09:32:53;18.15;;;14.50;;
57893;SDS011;43710;47.460;19.034;2024-02-16T09:35:56;19.17;;;14.65;;
57893;SDS011;43710;47.460;19.034;2024-02-16T09:38:58;25.50;;;14.50;;
57893;SDS011;43710;47.460;19.034;2024-02-16T09:42:00;21.25;;;15.82;;
57893;SDS011;43710;47.460;19.034;2024-02-16T09:45:03;20.40;;;14.70;;
57893;SDS011;43710;47.460;19.034;2024-02-16T09:48:07;16.73;;;13.43;;
57893;SDS011;43710;47.460;19.034;2024-02-16T09:51:12;20.52;;;14.77;;
57893;SDS011;43710;47.460;19.034;2024-02-16T09:54:14;22.35;;;13.68;;
57893;SDS011;43710;47.460;19.034;2024-02-16T09:57:17;15.05;;;12.70;;
57893;SDS011;43710;47.460;19.034;2024-02-16T10:00:20;16.20;;;12.48;;
57893;SDS011;43710;47.460;19.034;2024-02-16T10:03:26;17.02;;;12.30;;
57893;SDS011;43710;47.460;19.034;2024-02-16T10:06:30;19.70;;;12.73;;
57893;SDS011;43710;47.460;19.034;2024-02-16T10:09:32;16.08;;;11.40;;
57893;SDS011;43710;47.460;19.034;2024-02-16T10:12:35;14.65;;;11.75;;
57893;SDS011;43710;47.460;19.034;2024-02-16T10:15:37;15.55;;;11.60;;
57893;SDS011;43710;47.460;19.034;2024-02-16T10:18:39;15.00;;;11.57;;
57893;SDS011;43710;47.460;19.034;2024-02-16T10:21:42;14.95;;;12.13;;
57893;SDS011;43710;47.460;19.034;2024-02-16T10:24:46;14.82;;;10.90;;
57893;SDS011;43710;47.460;19.034;2024-02-16T10:27:48;13.07;;;10.40;;
57893;SDS011;43710;47.460;19.034;2024-02-16T10:30:50;13.30;;;10.43;;
57893;SDS011;43710;47.460;19.034;2024-02-16T10:33:55;15.48;;;11.35;;
57893;SDS011;43710;47.460;19.034;2024-02-16T10:37:04;14.63;;;11.12;;
57893;SDS011;43710;47.460;19.034;2024-02-16T10:40:08;15.45;;;10.60;;
57893;SDS011;43710;47.460;19.034;2024-02-16T10:43:13;28.10;;;11.30;;
57893;SDS011;43710;47.460;19.034;2024-02-16T10:46:18;17.45;;;10.18;;
57893;SDS011;43710;47.460;19.034;2024-02-16T10:49:24;13.85;;;10.73;;
57893;SDS011;43710;47.460;19.034;2024-02-16T10:52:27;15.05;;;11.45;;
57893;SDS011;43710;47.460;19.034;2024-02-16T10:55:29;13.38;;;11.07;;
57893;SDS011;43710;47.460;19.034;2024-02-16T10:58:32;17.20;;;11.40;;
57893;SDS011;43710;47.460;19.034;2024-02-16T11:01:38;16.08;;;11.07;;
57893;SDS011;43710;47.460;19.034;2024-02-16T11:04:45;15.77;;;10.73;;
57893;SDS011;43710;47.460;19.034;2024-02-16T11:11:02;12.35;;;9.60;;
57893;SDS011;43710;47.460;19.034;2024-02-16T11:14:13;13.02;;;10.50;;
57893;SDS011;43710;47.460;19.034;2024-02-16T11:17:21;14.87;;;9.75;;
57893;SDS011;43710;47.460;19.034;2024-02-16T11:20:25;16.00;;;10.60;;
57893;SDS011;43710;47.460;19.034;2024-02-16T11:23:31;18.10;;;12.05;;
57893;SDS011;43710;47.460;19.034;2024-02-16T11:26:36;14.20;;;10.75;;
57893;SDS011;43710;47.460;19.034;2024-02-16T11:29:45;16.58;;;10.95;;
57893;SDS011;43710;47.460;19.034;2024-02-16T11:32:47;15.27;;;10.63;;
57893;SDS011;43710;47.460;19.034;2024-02-16T11:35:54;16.05;;;11.05;;
57893;SDS011;43710;47.460;19.034;2024-02-16T11:39:11;13.32;;;11.00;;
57893;SDS011;43710;47.460;19.034;2024-02-16T11:42:18;15.27;;;11.23;;
57893;SDS011;43710;47.460;19.034;2024-02-16T11:45:21;16.58;;;11.95;;
57893;SDS011;43710;47.460;19.034;2024-02-16T11:48:25;15.95;;;11.88;;
57893;SDS011;43710;47.460;19.034;2024-02-16T11:51:29;15.52;;;12.48;;
57893;SDS011;43710;47.460;19.034;2024-02-16T11:54:32;15.32;;;12.23;;
57893;SDS011;43710;47.460;19.034;2024-02-16T11:57:35;17.65;;;13.43;;
57893;SDS011;43710;47.460;19.034;2024-02-16T12:00:39;16.55;;;12.52;;
57893;SDS011;43710;47.460;19.034;2024-02-16T12:03:43;14.48;;;11.12;;
57893;SDS011;43710;47.460;19.034;2024-02-16T12:06:45;15.40;;;10.95;;
57893;SDS011;43710;47.460;19.034;2024-02-16T12:09:56;13.77;;;10.77;;
57893;SDS011;43710;47.460;19.034;2024-02-16T12:12:59;13.93;;;9.73;;
57893;SDS011;43710;47.460;19.034;2024-02-16T12:16:07;13.98;;;9.73;;
57893;SDS011;43710;47.460;19.034;2024-02-16T12:19:09;14.82;;;10.05;;
57893;SDS011;43710;47.460;19.034;2024-02-16T12:22:20;15.45;;;10.40;;
57893;SDS011;43710;47.460;19.034;2024-02-16T12:25:23;14.25;;;10.73;;
57893;SDS011;43710;47.460;19.034;2024-02-16T12:28:27;15.13;;;10.05;;
57893;SDS011;43710;47.460;19.034;2024-02-16T12:31:31;14.63;;;8.68;;
57893;SDS011;43710;47.460;19.034;2024-02-16T12:34:34;13.00;;;9.00;;
57893;SDS011;43710;47.460;19.034;2024-02-16T12:37:37;12.30;;;9.50;;
57893;SDS011;43710;47.460;19.034;2024-02-16T12:40:41;15.60;;;10.48;;
57893;SDS011;43710;47.460;19.034;2024-02-16T12:43:44;14.63;;;10.57;;
57893;SDS011;43710;47.460;19.034;2024-02-16T12:46:47;13.50;;;10.48;;
57893;SDS011;43710;47.460;19.034;2024-02-16T12:49:49;13.57;;;10.45;;
57893;SDS011;43710;47.460;19.034;2024-02-16T12:52:52;13.32;;;10.93;;
57893;SDS011;43710;47.460;19.034;2024-02-16T12:56:07;12.88;;;10.07;;
57893;SDS011;43710;47.460;19.034;2024-02-16T12:59:34;12.70;;;9.18;;
57893;SDS011;43710;47.460;19.034;2024-02-16T13:02:37;12.63;;;9.27;;
57893;SDS011;43710;47.460;19.034;2024-02-16T13:05:39;13.82;;;9.20;;
57893;SDS011;43710;47.460;19.034;2024-02-16T13:08:42;11.45;;;9.30;;
57893;SDS011;43710;47.460;19.034;2024-02-16T13:11:45;14.87;;;10.68;;
57893;SDS011;43710;47.460;19.034;2024-02-16T13:14:47;14.10;;;9.90;;
57893;SDS011;43710;47.460;19.034;2024-02-16T13:17:50;12.63;;;9.55;;
57893;SDS011;43710;47.460;19.034;2024-02-16T13:20:52;13.25;;;10.10;;
57893;SDS011;43710;47.460;19.034;2024-02-16T13:23:54;13.18;;;9.85;;
57893;SDS011;43710;47.460;19.034;2024-02-16T13:26:57;13.32;;;10.20;;
57893;SDS011;43710;47.460;19.034;2024-02-16T13:29:59;14.32;;;9.80;;
57893;SDS011;43710;47.460;19.034;2024-02-16T13:33:02;13.62;;;10.32;;
57893;SDS011;43710;47.460;19.034;2024-02-16T13:36:05;14.50;;;10.02;;
57893;SDS011;43710;47.460;19.034;2024-02-16T13:39:07;13.32;;;9.43;;
57893;SDS011;43710;47.460;19.034;2024-02-16T13:42:10;15.02;;;10.45;;
57893;SDS011;43710;47.460;19.034;2024-02-16T13:45:13;14.82;;;9.60;;
57893;SDS011;43710;47.460;19.034;2024-02-16T13:48:16;13.88;;;10.55;;
57893;SDS011;43710;47.460;19.034;2024-02-16T13:51:18;14.18;;;10.43;;
57893;SDS011;43710;47.460;19.034;2024-02-16T13:54:21;12.65;;;9.93;;
57893;SDS011;43710;47.460;19.034;2024-02-16T13:57:26;12.13;;;9.45;;
57893;SDS011;43710;47.460;19.034;2024-02-16T14:00:28;13.20;;;9.18;;
57893;SDS011;43710;47.460;19.034;2024-02-16T14:03:31;12.80;;;9.35;;
57893;SDS011;43710;47.460;19.034;2024-02-16T14:06:34;12.93;;;9.63;;
57893;SDS011;43710;47.460;19.034;2024-02-16T14:09:38;13.62;;;9.43;;
57893;SDS011;43710;47.460;19.034;2024-02-16T14:12:40;12.55;;;9.50;;
57893;SDS011;43710;47.460;19.034;2024-02-16T14:15:44;12.45;;;9.10;;
57893;SDS011;43710;47.460;19.034;2024-02-16T14:18:46;13.52;;;8.75;;
57893;SDS011;43710;47.460;19.034;2024-02-16T14:21:52;13.70;;;8.88;;
57893;SDS011;43710;47.460;19.034;2024-02-16T14:24:54;12.68;;;8.80;;
57893;SDS011;43710;47.460;19.034;2024-02-16T14:27:57;13.45;;;8.88;;
57893;SDS011;43710;47.460;19.034;2024-02-16T14:31:00;12.70;;;8.55;;
57893;SDS011;43710;47.460;19.034;2024-02-16T14:34:02;12.90;;;8.95;;
57893;SDS011;43710;47.460;19.034;2024-02-16T14:37:05;15.25;;;9.35;;
57893;SDS011;43710;47.460;19.034;2024-02-16T14:40:07;10.63;;;8.52;;
57893;SDS011;43710;47.460;19.034;2024-02-16T14:43:12;23.70;;;8.60;;
57893;SDS011;43710;47.460;19.034;2024-02-16T14:46:14;13.75;;;9.63;;
57893;SDS011;43710;47.460;19.034;2024-02-16T14:49:17;12.10;;;8.38;;
57893;SDS011;43710;47.460;19.034;2024-02-16T14:52:24;11.60;;;8.48;;
57893;SDS011;43710;47.460;19.034;2024-02-16T14:55:26;13.25;;;8.90;;
57893;SDS011;43710;47.460;19.034;2024-02-16T14:58:29;10.77;;;8.88;;
57893;SDS011;43710;47.460;19.034;2024-02-16T15:01:31;13.25;;;9.10;;
57893;SDS011;43710;47.460;19.034;2024-02-16T15:04:34;11.50;;;8.82;;
57893;SDS011;43710;47.460;19.034;2024-02-16T15:07:36;16.75;;;9.07;;
57893;SDS011;43710;47.460;19.034;2024-02-16T15:10:38;10.90;;;8.60;;
57893;SDS011;43710;47.460;19.034;2024-02-16T15:13:41;12.45;;;9.63;;
57893;SDS011;43710;47.460;19.034;2024-02-16T15:16:45;11.80;;;9.65;;
57893;SDS011;43710;47.460;19.034;2024-02-16T15:19:47;11.98;;;9.00;;
57893;SDS011;43710;47.460;19.034;2024-02-16T15:22:49;14.13;;;9.15;;
57893;SDS011;43710;47.460;19.034;2024-02-16T15:25:54;11.57;;;8.80;;
57893;SDS011;43710;47.460;19.034;2024-02-16T15:28:56;13.27;;;9.90;;
57893;SDS011;43710;47.460;19.034;2024-02-16T15:31:59;14.15;;;10.27;;
57893;SDS011;43710;47.460;19.034;2024-02-16T15:35:05;18.87;;;9.85;;
57893;SDS011;43710;47.460;19.034;2024-02-16T15:38:08;15.18;;;10.73;;
57893;SDS011;43710;47.460;19.034;2024-02-16T15:41:10;17.15;;;11.32;;
57893;SDS011;43710;47.460;19.034;2024-02-16T15:44:13;12.70;;;9.98;;
57893;SDS011;43710;47.460;19.034;2024-02-16T15:47:15;15.55;;;10.57;;
57893;SDS011;43710;47.460;19.034;2024-02-16T15:50:17;15.75;;;10.57;;
57893;SDS011;43710;47.460;19.034;2024-02-16T15:53:20;15.30;;;10.00;;
57893;SDS011;43710;47.460;19.034;2024-02-16T15:56:22;12.98;;;10.45;;
57893;SDS011;43710;47.460;19.034;2024-02-16T15:59:26;12.93;;;10.32;;
57893;SDS011;43710;47.460;19.034;2024-02-16T16:02:28;16.27;;;9.68;;
57893;SDS011;43710;47.460;19.034;2024-02-16T16:05:31;14.02;;;9.50;;
57893;SDS011;43710;47.460;19.034;2024-02-16T16:08:35;15.57;;;9.27;;
57893;SDS011;43710;47.460;19.034;2024-02-16T16:11:38;16.45;;;9.90;;
57893;SDS011;43710;47.460;19.034;2024-02-16T16:14:40;15.40;;;9.40;;
57893;SDS011;43710;47.460;19.034;2024-02-16T16:17:43;16.67;;;9.98;;
57893;SDS011;43710;47.460;19.034;2024-02-16T16:20:45;12.25;;;8.95;;
57893;SDS011;43710;47.460;19.034;2024-02-16T16:23:48;17.35;;;9.15;;
57893;SDS011;43710;47.460;19.034;2024-02-16T16:26:50;15.75;;;10.20;;
57893;SDS011;43710;47.460;19.034;2024-02-16T16:29:52;14.23;;;9.90;;
57893;SDS011;43710;47.460;19.034;2024-02-16T16:32:54;13.57;;;10.00;;
57893;SDS011;43710;47.460;19.034;2024-02-16T16:35:58;13.25;;;9.75;;
57893;SDS011;43710;47.460;19.034;2024-02-16T16:39:01;14.27;;;10.05;;
57893;SDS011;43710;47.460;19.034;2024-02-16T16:42:04;16.45;;;10.95;;
57893;SDS011;43710;47.460;19.034;2024-02-16T16:45:06;15.98;;;10.48;;
57893;SDS011;43710;47.460;19.034;2024-02-16T16:48:09;16.77;;;9.70;;
57893;SDS011;43710;47.460;19.034;2024-02-16T16:51:11;14.10;;;10.18;;
57893;SDS011;43710;47.460;19.034;2024-02-16T16:54:15;14.00;;;10.27;;
